Time;durP1;ratioP1;P1;durP2;ratioP2;P2;SDS_P1;SDS_P2;PMS_P1;PMS_P2;Temp;Humidity;BMP_temperature;BMP_pressure;BME280_temperature;BME280_humidity;BME280_pressure;Samples;Min_cycle;Max_cycle;Signal;HPM_P1;HPM_P2
2021/07/22 00:01:57;;;;;;;7.97;7.25;;;22.40;99.90;;;;;;5068124;28;20202;-83
2021/07/22 00:04:24;;;;;;;6.30;5.70;;;22.40;99.90;;;;;;5071934;28;20203;-83
2021/07/22 00:06:51;;;;;;;6.68;5.78;;;22.40;99.90;;;;;;5070950;28;20471;-84
2021/07/22 00:09:19;;;;;;;7.05;6.35;;;22.40;99.90;;;;;;5067836;28;20203;-83
2021/07/22 00:11:46;;;;;;;8.35;6.93;;;22.30;99.90;;;;;;5071629;28;20211;-83
2021/07/22 00:14:13;;;;;;;7.45;6.63;;;22.30;99.90;;;;;;5069205;28;20202;-84
2021/07/22 00:16:39;;;;;;;6.80;5.90;;;22.30;99.90;;;;;;5073390;28;20569;-88
2021/07/22 00:19:06;;;;;;;6.93;6.22;;;22.30;99.90;;;;;;5072880;28;20198;-90
2021/07/22 00:21:33;;;;;;;6.50;5.80;;;22.30;99.90;;;;;;5071745;28;20203;-82
2021/07/22 00:24:00;;;;;;;7.28;6.50;;;22.20;99.90;;;;;;5070296;28;20472;-82
2021/07/22 00:26:28;;;;;;;10.27;6.68;;;22.30;99.90;;;;;;5063561;28;20227;-82
2021/07/22 00:28:54;;;;;;;7.18;6.47;;;22.20;99.90;;;;;;5052422;28;20203;-82
2021/07/22 00:31:21;;;;;;;8.70;6.53;;;22.20;99.90;;;;;;5060954;28;20214;-82
2021/07/22 00:33:48;;;;;;;8.95;6.50;;;22.20;99.90;;;;;;5066246;28;20199;-82
2021/07/22 00:36:14;;;;;;;7.00;6.30;;;22.20;99.90;;;;;;5068074;28;20203;-81
2021/07/22 00:38:41;;;;;;;6.40;5.65;;;22.20;99.90;;;;;;5072366;28;20496;-82
2021/07/22 00:41:10;;;;;;;7.72;5.95;;;22.10;99.90;;;;;;5070970;28;20233;-82
2021/07/22 00:43:39;;;;;;;7.95;6.05;;;22.10;99.90;;;;;;5071246;28;20309;-82
2021/07/22 00:46:06;;;;;;;6.30;5.68;;;22.10;99.90;;;;;;5069178;28;20230;-87
2021/07/22 00:48:33;;;;;;;6.15;5.55;;;22.10;99.90;;;;;;5070154;28;20252;-87
2021/07/22 00:50:59;;;;;;;8.23;5.90;;;22.10;99.90;;;;;;5065362;28;20202;-88
2021/07/22 00:53:26;;;;;;;8.70;6.30;;;22.10;99.90;;;;;;5071635;28;20202;-88
2021/07/22 00:55:53;;;;;;;6.90;6.05;;;22.10;99.90;;;;;;5070430;28;20256;-84
2021/07/22 00:58:19;;;;;;;8.65;6.50;;;22.00;99.90;;;;;;5068371;28;20573;-82
2021/07/22 01:00:47;;;;;;;5.70;5.10;;;22.00;99.90;;;;;;5066503;28;20198;-82
2021/07/22 01:03:14;;;;;;;8.30;6.95;;;22.00;99.90;;;;;;5071951;28;20206;-85
2021/07/22 01:05:41;;;;;;;6.55;5.95;;;22.00;99.90;;;;;;5069509;28;20238;-86
2021/07/22 01:08:07;;;;;;;9.45;7.13;;;22.00;99.90;;;;;;5068902;28;20226;-83
2021/07/22 01:10:34;;;;;;;7.18;6.47;;;22.00;99.90;;;;;;5053724;28;20269;-84
2021/07/22 01:13:01;;;;;;;7.10;5.47;;;22.00;99.90;;;;;;5067419;28;20209;-82
2021/07/22 01:15:27;;;;;;;6.68;5.97;;;22.00;99.90;;;;;;5071046;28;20207;-82
2021/07/22 01:17:56;;;;;;;7.80;6.15;;;21.90;99.90;;;;;;5070390;28;20225;-82
2021/07/22 01:20:25;;;;;;;7.10;6.03;;;21.90;99.90;;;;;;5069550;28;20209;-82
2021/07/22 01:22:53;;;;;;;7.68;6.43;;;21.90;99.90;;;;;;5067858;28;20199;-82
2021/07/22 01:25:20;;;;;;;7.15;6.45;;;21.90;99.90;;;;;;5069486;28;20213;-82
2021/07/22 01:27:47;;;;;;;11.43;6.35;;;21.90;99.90;;;;;;5069095;28;20206;-85
2021/07/22 01:30:15;;;;;;;8.90;6.65;;;21.80;99.90;;;;;;5071244;28;20191;-85
2021/07/22 01:32:42;;;;;;;7.93;6.15;;;21.80;99.90;;;;;;5067857;28;20205;-84
2021/07/22 01:35:11;;;;;;;6.28;5.68;;;21.80;99.90;;;;;;5064230;28;20211;-87
2021/07/22 01:37:40;;;;;;;6.63;5.93;;;21.80;99.90;;;;;;5069286;28;20219;-86
2021/07/22 01:40:08;;;;;;;6.85;6.00;;;22.00;99.90;;;;;;5069587;28;20216;-83
2021/07/22 01:42:35;;;;;;;7.75;6.55;;;21.80;99.90;;;;;;5069438;28;20261;-83
2021/07/22 01:45:01;;;;;;;7.32;6.47;;;21.70;99.90;;;;;;5070247;28;20290;-82
2021/07/22 01:47:28;;;;;;;7.88;6.70;;;21.70;99.90;;;;;;5070939;28;20194;-83
2021/07/22 01:49:55;;;;;;;6.50;5.68;;;21.70;99.90;;;;;;5068580;28;20213;-83
2021/07/22 01:52:21;;;;;;;6.72;6.05;;;21.70;99.90;;;;;;5064640;28;20202;-82
2021/07/22 01:54:49;;;;;;;7.43;6.18;;;21.70;99.90;;;;;;5067707;28;20205;-83
2021/07/22 01:57:16;;;;;;;6.97;6.28;;;21.30;99.90;;;;;;5053640;28;20222;-82
2021/07/22 01:59:42;;;;;;;8.45;6.88;;;21.80;99.90;;;;;;5054356;28;20214;-83
2021/07/22 02:02:10;;;;;;;8.73;6.78;;;21.60;99.90;;;;;;5065697;28;20214;-83
2021/07/22 02:04:39;;;;;;;7.35;6.57;;;21.60;99.90;;;;;;5067156;28;20272;-87
2021/07/22 02:07:06;;;;;;;6.55;5.88;;;21.60;99.90;;;;;;5067804;28;20211;-86
2021/07/22 02:09:33;;;;;;;7.28;6.13;;;21.60;99.90;;;;;;5067218;28;20207;-83
2021/07/22 02:12:02;;;;;;;7.72;6.80;;;21.60;99.90;;;;;;5069173;28;20226;-86
2021/07/22 02:14:29;;;;;;;6.30;5.70;;;21.60;99.90;;;;;;5067707;28;20230;-86
2021/07/22 02:16:55;;;;;;;8.23;6.65;;;21.60;99.90;;;;;;5068162;28;20209;-86
2021/07/22 02:19:22;;;;;;;7.20;6.50;;;21.60;99.90;;;;;;5069771;28;20315;-86
2021/07/22 02:21:49;;;;;;;7.47;6.63;;;21.50;99.90;;;;;;5069046;28;20203;-86
2021/07/22 02:24:16;;;;;;;8.43;7.18;;;21.50;99.90;;;;;;5054944;28;20210;-85
2021/07/22 02:26:43;;;;;;;8.23;6.85;;;21.50;99.90;;;;;;5057061;28;20199;-87
2021/07/22 02:29:11;;;;;;;8.10;6.53;;;21.50;99.90;;;;;;5069383;28;20198;-84
2021/07/22 02:31:38;;;;;;;7.35;6.10;;;21.50;99.90;;;;;;5068252;28;20259;-85
2021/07/22 02:34:05;;;;;;;6.65;5.97;;;21.50;99.90;;;;;;5066869;28;20207;-84
2021/07/22 02:36:33;;;;;;;6.25;5.65;;;21.50;99.90;;;;;;5068243;28;20209;-85
2021/07/22 02:38:59;;;;;;;8.90;6.13;;;21.50;99.90;;;;;;5069516;28;20280;-84
2021/07/22 02:41:27;;;;;;;7.95;6.60;;;21.50;99.90;;;;;;5068576;28;20269;-87
2021/07/22 02:43:54;;;;;;;6.50;5.70;;;21.50;99.90;;;;;;5063436;28;20289;-82
2021/07/22 02:46:22;;;;;;;6.15;5.47;;;21.40;99.90;;;;;;5070207;28;20225;-83
2021/07/22 02:48:48;;;;;;;6.38;5.18;;;21.40;99.90;;;;;;5067535;28;20257;-82
2021/07/22 02:51:15;;;;;;;6.80;5.78;;;21.40;99.90;;;;;;5064935;28;20519;-85
2021/07/22 02:53:42;;;;;;;6.03;5.18;;;21.40;99.90;;;;;;5068164;28;20207;-86
2021/07/22 02:56:09;;;;;;;6.45;5.57;;;21.40;99.90;;;;;;5067153;28;20214;-86
2021/07/22 02:58:35;;;;;;;7.10;5.88;;;21.40;99.90;;;;;;5069434;28;20252;-85
2021/07/22 03:01:02;;;;;;;8.43;5.32;;;21.30;99.90;;;;;;5067326;28;20547;-85
2021/07/22 03:03:30;;;;;;;7.28;6.50;;;21.30;99.90;;;;;;5057086;28;20533;-84
2021/07/22 03:05:57;;;;;;;6.95;6.25;;;21.30;99.90;;;;;;5065627;28;20203;-86
2021/07/22 03:08:23;;;;;;;7.97;7.15;;;21.30;99.90;;;;;;5067269;28;20508;-85
2021/07/22 03:10:50;;;;;;;6.78;5.88;;;21.30;99.90;;;;;;5070944;28;20695;-84
2021/07/22 03:13:17;;;;;;;7.68;5.53;;;21.30;99.90;;;;;;5069452;28;20586;-85
2021/07/22 03:15:43;;;;;;;5.60;5.05;;;21.30;99.90;;;;;;5070922;28;21216;-81
2021/07/22 03:18:10;;;;;;;6.68;5.82;;;21.30;99.90;;;;;;5070195;28;20860;-82
2021/07/22 03:20:38;;;;;;;9.43;6.70;;;21.30;99.90;;;;;;5072180;28;20206;-80
2021/07/22 03:23:05;;;;;;;6.93;6.22;;;21.30;99.90;;;;;;5059979;28;20332;-82
2021/07/22 03:25:32;;;;;;;7.93;6.47;;;21.20;99.90;;;;;;5072637;28;20207;-82
2021/07/22 03:28:01;;;;;;;7.15;6.45;;;21.20;99.90;;;;;;5071418;28;20444;-82
2021/07/22 03:30:28;;;;;;;5.82;4.70;;;21.20;99.90;;;;;;5072611;28;20199;-82
2021/07/22 03:32:55;;;;;;;6.82;6.22;;;21.20;99.90;;;;;;5070836;28;20199;-81
2021/07/22 03:35:22;;;;;;;8.75;6.22;;;21.20;99.90;;;;;;5071996;28;20198;-81
2021/07/22 03:37:50;;;;;;;8.25;7.35;;;21.20;99.90;;;;;;5072781;28;20218;-81
2021/07/22 03:40:17;;;;;;;7.60;6.90;;;21.20;99.90;;;;;;5072814;28;20207;-81
2021/07/22 03:42:43;;;;;;;7.22;6.15;;;21.20;99.90;;;;;;5072852;28;20238;-82
2021/07/22 03:45:11;;;;;;;7.28;5.90;;;21.20;99.90;;;;;;5073826;28;20289;-81
2021/07/22 03:47:38;;;;;;;7.60;6.10;;;21.10;99.90;;;;;;5064391;28;20657;-80
2021/07/22 03:50:06;;;;;;;5.63;5.05;;;21.10;99.90;;;;;;5071713;28;20211;-80
2021/07/22 03:52:32;;;;;;;7.15;5.88;;;21.10;99.90;;;;;;5071058;28;20211;-80
2021/07/22 03:55:00;;;;;;;5.93;5.13;;;21.10;99.90;;;;;;5064250;28;20650;-80
2021/07/22 03:57:27;;;;;;;7.57;6.15;;;21.10;99.90;;;;;;5064781;28;20202;-81
2021/07/22 03:59:53;;;;;;;8.35;6.03;;;21.10;99.90;;;;;;5069702;28;20227;-81
2021/07/22 04:02:20;;;;;;;7.18;6.18;;;21.10;99.90;;;;;;5064913;28;20302;-82
2021/07/22 04:04:47;;;;;;;8.27;6.85;;;21.10;99.90;;;;;;5071631;28;20634;-83
2021/07/22 04:07:13;;;;;;;6.85;5.57;;;21.10;99.90;;;;;;5068771;28;20210;-82
2021/07/22 04:09:41;;;;;;;6.22;5.43;;;20.90;99.90;;;;;;5071100;28;20206;-82
2021/07/22 04:12:09;;;;;;;7.45;6.50;;;21.00;99.90;;;;;;5068593;28;20649;-81
2021/07/22 04:14:36;;;;;;;6.20;5.60;;;21.00;99.90;;;;;;5072024;28;20222;-82
2021/07/22 04:17:03;;;;;;;7.65;5.93;;;21.00;99.90;;;;;;5065860;28;20202;-82
2021/07/22 04:19:29;;;;;;;6.60;5.55;;;21.00;99.90;;;;;;5071854;28;20218;-82
2021/07/22 04:21:56;;;;;;;7.55;6.25;;;21.00;99.90;;;;;;5067569;28;20203;-81
2021/07/22 04:24:23;;;;;;;8.07;5.40;;;21.00;99.90;;;;;;5068722;28;20191;-81
2021/07/22 04:26:49;;;;;;;6.05;5.43;;;21.10;99.90;;;;;;5067291;28;20191;-81
2021/07/22 04:29:17;;;;;;;5.90;5.30;;;21.00;99.90;;;;;;5069151;28;20191;-81
2021/07/22 04:31:44;;;;;;;7.50;6.03;;;20.90;99.90;;;;;;5067507;28;20561;-81
2021/07/22 04:34:10;;;;;;;6.25;5.65;;;20.90;99.90;;;;;;5067222;28;20199;-82
2021/07/22 04:36:37;;;;;;;7.38;5.80;;;21.00;99.90;;;;;;5057301;28;20656;-82
2021/07/22 04:39:04;;;;;;;7.13;6.18;;;21.00;99.90;;;;;;5068662;28;20626;-82
2021/07/22 04:41:30;;;;;;;6.43;5.75;;;20.90;99.90;;;;;;5065481;28;20226;-82
2021/07/22 04:43:57;;;;;;;6.60;5.97;;;20.90;99.90;;;;;;5062788;28;20203;-81
2021/07/22 04:46:25;;;;;;;6.40;5.80;;;20.90;99.90;;;;;;5067108;28;20213;-80
2021/07/22 04:48:52;;;;;;;7.45;6.68;;;20.90;99.90;;;;;;5066368;28;20203;-80
2021/07/22 04:51:19;;;;;;;5.85;5.25;;;20.90;99.90;;;;;;5065318;28;20742;-81
2021/07/22 04:53:45;;;;;;;6.80;5.72;;;20.90;99.90;;;;;;5067883;28;20233;-80
2021/07/22 04:56:12;;;;;;;7.80;6.57;;;20.90;99.90;;;;;;5071308;28;20645;-83
2021/07/22 04:58:38;;;;;;;6.65;5.25;;;20.80;99.90;;;;;;5070682;28;20279;-83
2021/07/22 05:01:05;;;;;;;7.50;6.60;;;20.80;99.90;;;;;;5070475;28;20202;-81
2021/07/22 05:03:33;;;;;;;6.63;5.93;;;20.80;99.90;;;;;;5070794;28;20203;-81
2021/07/22 05:06:00;;;;;;;5.95;5.20;;;20.80;99.90;;;;;;5069953;28;20217;-83
2021/07/22 05:08:27;;;;;;;6.55;5.75;;;20.80;99.90;;;;;;5068459;28;20195;-81
2021/07/22 05:10:54;;;;;;;6.63;5.90;;;20.80;99.90;;;;;;5064348;28;20203;-82
2021/07/22 05:13:20;;;;;;;6.13;5.25;;;20.80;99.90;;;;;;5063341;28;20199;-81
2021/07/22 05:15:47;;;;;;;6.25;5.10;;;20.90;99.90;;;;;;5066196;28;20195;-81
2021/07/22 05:18:15;;;;;;;9.32;6.07;;;20.90;99.90;;;;;;5070942;28;20198;-81
2021/07/22 05:20:43;;;;;;;6.90;6.00;;;20.90;99.90;;;;;;5065979;28;20203;-81
2021/07/22 05:23:10;;;;;;;6.07;5.32;;;20.90;99.90;;;;;;5070204;28;20198;-81
2021/07/22 05:25:37;;;;;;;7.45;6.25;;;20.90;99.90;;;;;;5068793;28;20203;-81
2021/07/22 05:28:04;;;;;;;7.22;5.10;;;20.90;99.90;;;;;;5068010;28;20289;-82
2021/07/22 05:30:31;;;;;;;6.10;5.40;;;20.90;99.90;;;;;;5066399;28;20206;-81
2021/07/22 05:32:58;;;;;;;7.68;6.45;;;20.90;99.90;;;;;;5066272;28;20202;-82
2021/07/22 05:35:24;;;;;;;7.03;6.32;;;20.80;99.90;;;;;;5065916;28;20205;-81
2021/07/22 05:37:54;;;;;;;6.60;5.95;;;20.80;99.90;;;;;;5066161;28;20526;-83
2021/07/22 05:40:20;;;;;;;7.22;5.97;;;20.90;99.90;;;;;;5064816;28;20314;-84
2021/07/22 05:42:48;;;;;;;8.43;6.57;;;20.80;99.90;;;;;;5065019;28;20230;-84
2021/07/22 05:45:15;;;;;;;6.63;5.93;;;20.80;99.90;;;;;;5065870;28;20203;-83
2021/07/22 05:47:42;;;;;;;7.22;6.50;;;20.80;99.90;;;;;;5066317;28;20226;-87
2021/07/22 05:50:09;;;;;;;7.65;6.68;;;20.80;99.90;;;;;;5065854;28;20516;-84
2021/07/22 05:52:36;;;;;;;8.75;5.95;;;20.80;99.90;;;;;;5063541;28;20200;-83
2021/07/22 05:55:04;;;;;;;6.93;5.95;;;20.80;99.90;;;;;;5065295;28;20664;-88
2021/07/22 05:57:32;;;;;;;7.95;5.80;;;20.80;99.90;;;;;;5067068;28;20199;-87
2021/07/22 05:59:59;;;;;;;6.03;5.00;;;20.80;99.90;;;;;;5066504;28;20226;-87
2021/07/22 06:02:25;;;;;;;6.40;5.55;;;20.80;99.90;;;;;;5062678;28;20199;-88
2021/07/22 06:04:52;;;;;;;6.05;5.45;;;20.80;99.90;;;;;;5066998;28;20206;-88
2021/07/22 06:07:19;;;;;;;6.95;6.25;;;20.90;99.90;;;;;;5064280;28;20198;-89
2021/07/22 06:09:46;;;;;;;6.20;5.25;;;20.70;99.90;;;;;;5068690;28;20199;-89
2021/07/22 06:12:14;;;;;;;7.35;5.60;;;20.90;99.90;;;;;;5068473;28;20198;-90
2021/07/22 06:14:40;;;;;;;4.82;4.32;;;21.10;99.90;;;;;;5069063;28;20701;-90
2021/07/22 06:17:07;;;;;;;6.38;5.32;;;21.30;99.90;;;;;;5067836;28;20649;-91
2021/07/22 06:19:34;;;;;;;5.35;4.85;;;21.50;99.90;;;;;;5068409;28;20222;-82
2021/07/22 06:22:00;;;;;;;6.95;4.95;;;21.80;99.90;;;;;;5067692;28;20206;-82
2021/07/22 06:24:27;;;;;;;6.65;5.53;;;22.00;99.90;;;;;;5068220;28;20534;-83
2021/07/22 06:26:54;;;;;;;6.82;5.95;;;22.20;99.90;;;;;;5068816;28;20206;-83
2021/07/22 06:29:22;;;;;;;5.60;5.03;;;22.30;99.90;;;;;;5065194;28;20195;-84
2021/07/22 06:31:49;;;;;;;6.47;4.97;;;22.50;99.90;;;;;;5061001;28;20468;-84
2021/07/22 06:34:15;;;;;;;5.97;5.37;;;22.60;99.90;;;;;;5057396;28;20790;-83
2021/07/22 06:36:42;;;;;;;9.43;5.80;;;22.70;99.90;;;;;;5067541;28;20478;-83
2021/07/22 06:39:09;;;;;;;4.97;4.57;;;22.70;99.90;;;;;;5068446;28;20484;-82
2021/07/22 06:41:35;;;;;;;5.87;5.37;;;22.60;99.90;;;;;;5067132;28;20489;-83
2021/07/22 06:44:02;;;;;;;5.93;5.33;;;22.40;99.90;;;;;;5069157;28;20464;-86
2021/07/22 06:46:30;;;;;;;8.23;6.50;;;22.30;99.90;;;;;;5056232;28;20457;-91
2021/07/22 06:48:59;;;;;;;5.68;5.18;;;22.10;99.90;;;;;;5064289;28;20440;-89
2021/07/22 06:51:26;;;;;;;7.70;6.45;;;22.00;99.90;;;;;;5061967;28;20201;-89
2021/07/22 06:53:54;;;;;;;5.33;4.83;;;21.90;99.90;;;;;;5070583;28;20206;-83
2021/07/22 06:56:21;;;;;;;5.18;4.07;;;21.90;99.90;;;;;;5070720;28;20444;-87
2021/07/22 06:58:48;;;;;;;6.15;5.13;;;21.80;99.90;;;;;;5069670;28;20202;-86
2021/07/22 07:01:15;;;;;;;7.30;5.45;;;21.80;99.90;;;;;;5065621;28;20302;-85
2021/07/22 07:03:43;;;;;;;6.68;5.28;;;21.80;99.90;;;;;;5068486;28;20191;-85
2021/07/22 07:06:10;;;;;;;7.22;5.63;;;21.80;99.90;;;;;;5068227;28;20268;-82
2021/07/22 07:08:37;;;;;;;6.00;5.40;;;21.70;99.90;;;;;;5067367;28;20344;-87
2021/07/22 07:11:06;;;;;;;7.10;6.00;;;21.70;99.90;;;;;;5058685;28;20671;-87
2021/07/22 07:13:33;;;;;;;7.30;5.63;;;21.70;99.90;;;;;;5066383;28;20199;-89
2021/07/22 07:16:00;;;;;;;5.55;5.00;;;21.70;99.90;;;;;;5070891;28;20203;-92
2021/07/22 07:18:27;;;;;;;6.15;5.47;;;21.60;99.90;;;;;;5071017;28;20213;-82
2021/07/22 07:20:55;;;;;;;7.28;6.28;;;21.60;99.90;;;;;;5064379;28;20222;-79
2021/07/22 07:23:21;;;;;;;9.88;5.35;;;21.50;99.90;;;;;;5063849;28;20207;-77
2021/07/22 07:25:48;;;;;;;6.22;5.60;;;21.60;99.90;;;;;;5068424;28;20201;-77
2021/07/22 07:28:15;;;;;;;7.53;6.78;;;21.60;99.90;;;;;;5069808;28;20195;-84
2021/07/22 07:30:44;;;;;;;6.65;6.05;;;21.60;99.90;;;;;;5067159;28;20645;-81
2021/07/22 07:33:11;;;;;;;6.68;5.72;;;21.50;99.90;;;;;;5069178;28;20203;-82
2021/07/22 07:35:38;;;;;;;6.50;5.75;;;21.50;99.90;;;;;;5068981;28;20206;-76
2021/07/22 07:38:07;;;;;;;7.15;4.93;;;21.50;99.90;;;;;;5069744;28;20253;-77
2021/07/22 07:40:34;;;;;;;6.88;4.85;;;21.50;99.90;;;;;;5069148;28;20215;-75
2021/07/22 07:43:01;;;;;;;5.63;4.68;;;21.60;99.90;;;;;;5070164;28;20541;-78
2021/07/22 07:45:28;;;;;;;5.25;4.65;;;21.60;99.90;;;;;;5069792;28;20230;-81
2021/07/22 07:47:55;;;;;;;10.07;6.40;;;21.60;99.90;;;;;;5070138;28;20248;-87
2021/07/22 07:50:22;;;;;;;7.30;4.50;;;21.70;99.90;;;;;;5069613;28;20191;-76
2021/07/22 07:52:49;;;;;;;6.07;5.47;;;21.70;99.90;;;;;;5069077;28;20203;-76
2021/07/22 07:55:18;;;;;;;10.10;6.40;;;21.70;99.90;;;;;;5069146;28;20203;-79
2021/07/22 07:57:44;;;;;;;8.73;6.32;;;21.80;99.90;;;;;;5072588;28;20839;-91
2021/07/22 08:00:12;;;;;;;7.53;6.20;;;21.80;99.90;;;;;;5073194;28;20221;-81
2021/07/22 08:02:39;;;;;;;7.47;5.90;;;21.80;99.90;;;;;;5067009;28;20544;-82
2021/07/22 08:05:06;;;;;;;6.60;6.00;;;21.80;99.90;;;;;;5072995;28;20206;-81
2021/07/22 08:07:34;;;;;;;6.97;5.72;;;21.90;99.90;;;;;;5073940;28;20471;-81
2021/07/22 08:10:01;;;;;;;8.40;6.45;;;21.90;99.90;;;;;;5069344;28;20195;-84
2021/07/22 08:12:30;;;;;;;7.15;4.70;;;21.90;99.90;;;;;;5073239;28;20206;-78
2021/07/22 08:14:56;;;;;;;8.43;5.68;;;21.90;99.90;;;;;;5072723;28;20209;-81
2021/07/22 08:17:26;;;;;;;6.07;4.72;;;22.00;99.90;;;;;;5062139;28;20206;-80
2021/07/22 08:19:57;;;;;;;6.57;5.63;;;22.00;99.90;;;;;;5053109;28;20223;-80
2021/07/22 08:22:25;;;;;;;7.32;5.70;;;22.00;99.90;;;;;;5072451;28;20201;-84
2021/07/22 08:24:52;;;;;;;6.38;4.82;;;22.10;99.90;;;;;;5072512;28;20210;-78
2021/07/22 08:27:25;;;;;;;10.02;5.72;;;22.10;99.90;;;;;;5073239;28;20242;-76
2021/07/22 08:29:53;;;;;;;6.37;5.73;;;22.10;99.90;;;;;;5072530;28;20183;-78
2021/07/22 08:32:20;;;;;;;7.30;5.40;;;22.20;99.90;;;;;;5072659;28;20448;-79
2021/07/22 08:34:47;;;;;;;7.57;5.87;;;22.30;99.90;;;;;;5071609;28;20199;-80
2021/07/22 08:37:13;;;;;;;8.47;6.50;;;22.30;99.90;;;;;;5072014;28;20555;-80
2021/07/22 08:39:41;;;;;;;6.27;5.60;;;22.30;99.90;;;;;;5072184;28;20480;-84
2021/07/22 08:42:09;;;;;;;7.57;6.30;;;22.40;99.90;;;;;;5068056;28;20473;-84
2021/07/22 08:44:39;;;;;;;5.33;4.80;;;22.40;99.90;;;;;;5072382;28;20205;-85
2021/07/22 08:47:09;;;;;;;6.17;5.43;;;22.50;99.90;;;;;;5070479;28;20966;-81
2021/07/22 08:49:37;;;;;;;5.57;4.63;;;22.50;99.90;;;;;;5061514;28;21143;-81
2021/07/22 08:52:07;;;;;;;6.10;5.50;;;22.60;99.90;;;;;;5068619;28;20445;-81
2021/07/22 08:54:34;;;;;;;5.57;5.00;;;22.60;99.90;;;;;;5072487;28;20429;-81
2021/07/22 08:57:02;;;;;;;6.68;5.72;;;22.70;99.90;;;;;;5073139;28;20456;-81
2021/07/22 08:59:31;;;;;;;6.30;5.13;;;22.80;99.90;;;;;;5061195;28;20572;-81
2021/07/22 09:01:59;;;;;;;4.93;4.53;;;22.90;99.90;;;;;;5064981;28;20485;-82
2021/07/22 09:04:27;;;;;;;7.87;5.93;;;23.00;99.90;;;;;;5073099;28;20448;-81
2021/07/22 09:06:54;;;;;;;6.53;5.73;;;23.00;99.90;;;;;;5061660;28;20785;-81
2021/07/22 09:09:20;;;;;;;6.13;5.50;;;23.10;99.90;;;;;;5067146;28;20448;-81
2021/07/22 09:11:55;;;;;;;5.93;5.40;;;23.20;99.90;;;;;;5070786;28;20457;-81
2021/07/22 09:14:23;;;;;;;5.20;4.60;;;23.30;99.90;;;;;;5072094;28;20456;-82
2021/07/22 09:16:49;;;;;;;11.00;7.63;;;23.40;99.90;;;;;;5069830;28;20778;-82
2021/07/22 09:22:11;;;;;;;7.23;5.57;;;23.50;99.90;;;;;;5149723;27;21331;-82
2021/07/22 09:24:52;;;;;;;6.60;5.30;;;23.70;99.90;;;;;;5149467;27;20434;-81
2021/07/22 09:27:39;;;;;;;6.27;5.33;;;23.80;99.90;;;;;;5142181;27;20437;-82
2021/07/22 09:30:07;;;;;;;6.97;5.07;;;23.90;99.90;;;;;;5149631;27;20462;-81
2021/07/22 09:32:35;;;;;;;6.10;5.50;;;23.90;99.90;;;;;;5148190;27;20475;-82
2021/07/22 09:35:11;;;;;;;5.93;5.33;;;24.00;99.90;;;;;;5149743;27;20472;-82
2021/07/22 09:37:40;;;;;;;6.77;4.63;;;24.00;99.90;;;;;;5149760;27;20437;-81
2021/07/22 09:40:12;;;;;;;8.10;6.00;;;24.00;99.90;;;;;;5149779;27;20477;-82
2021/07/22 09:42:46;;;;;;;8.73;6.10;;;24.10;99.90;;;;;;5150547;27;20437;-82
2021/07/22 09:45:14;;;;;;;6.83;6.13;;;24.20;99.90;;;;;;5130029;28;20442;-82
2021/07/22 09:47:41;;;;;;;6.20;5.60;;;24.20;99.90;;;;;;5129941;28;20453;-81
2021/07/22 09:50:09;;;;;;;6.20;5.30;;;24.20;99.90;;;;;;5144108;27;20852;-81
2021/07/22 09:52:36;;;;;;;7.13;5.83;;;24.30;99.90;;;;;;5149955;27;20459;-82
2021/07/22 09:55:22;;;;;;;7.07;5.67;;;24.30;99.90;;;;;;5149390;27;20781;-81
2021/07/22 09:57:53;;;;;;;6.07;5.47;;;24.30;99.90;;;;;;5151665;27;20447;-82
2021/07/22 10:00:20;;;;;;;6.97;6.27;;;24.30;99.90;;;;;;5156369;27;20469;-83
2021/07/22 10:02:47;;;;;;;6.53;5.87;;;24.30;99.90;;;;;;5148471;27;20447;-79
2021/07/22 10:05:16;;;;;;;8.70;5.53;;;24.40;99.90;;;;;;5148844;27;20449;-87
2021/07/22 10:07:45;;;;;;;7.37;5.57;;;24.40;99.90;;;;;;5148817;27;20441;-82
2021/07/22 10:10:13;;;;;;;7.23;5.70;;;24.40;99.90;;;;;;5149274;27;20450;-89
2021/07/22 10:12:48;;;;;;;7.00;6.30;;;24.50;99.90;;;;;;5148418;27;20437;-85
2021/07/22 10:15:16;;;;;;;6.67;6.03;;;24.50;99.90;;;;;;5148642;27;20433;-83
2021/07/22 10:17:46;;;;;;;7.57;6.10;;;24.50;99.90;;;;;;5148047;27;21219;-79
2021/07/22 10:20:14;;;;;;;6.80;6.00;;;24.50;99.90;;;;;;5148288;27;20518;-80
2021/07/22 10:22:43;;;;;;;7.63;6.50;;;24.50;99.90;;;;;;5149012;27;20441;-84
2021/07/22 10:25:14;;;;;;;9.93;6.70;;;24.50;99.90;;;;;;5147850;27;20434;-81
2021/07/22 10:27:43;;;;;;;6.43;5.83;;;24.60;99.90;;;;;;5145765;27;20456;-76
2021/07/22 10:30:11;;;;;;;9.03;8.10;;;24.60;99.90;;;;;;5148648;27;20449;-79
2021/07/22 10:32:41;;;;;;;7.70;6.90;;;24.60;99.90;;;;;;5139835;27;20781;-79
2021/07/22 10:35:09;;;;;;;7.50;6.70;;;24.60;99.90;;;;;;5133625;27;20461;-80
2021/07/22 10:37:35;;;;;;;6.70;6.00;;;24.60;99.90;;;;;;5134233;27;20446;-76
2021/07/22 10:40:07;;;;;;;9.40;6.93;;;24.60;99.90;;;;;;5133892;27;20449;-84
2021/07/22 10:42:46;;;;;;;9.70;6.70;;;24.60;99.90;;;;;;5133929;27;20448;-85
2021/07/22 10:45:29;;;;;;;8.13;7.27;;;24.50;99.90;;;;;;5133862;27;20461;-85
2021/07/22 10:48:09;;;;;;;10.70;7.50;;;24.50;99.90;;;;;;5131134;27;20454;-84
2021/07/22 10:51:02;;;;;;;8.03;6.70;;;24.50;99.90;;;;;;5131839;27;20422;-83
2021/07/22 10:53:42;;;;;;;10.17;8.67;;;24.50;99.90;;;;;;5129990;27;20815;-82
2021/07/22 10:56:10;;;;;;;8.50;7.20;;;24.50;99.90;;;;;;5125909;27;20450;-85
2021/07/22 10:58:54;;;;;;;9.50;7.30;;;24.50;99.90;;;;;;5135975;27;20533;-81
2021/07/22 11:02:00;;;;;;;10.67;7.93;;;24.50;99.90;;;;;;5142559;27;20469;-81
2021/07/22 11:04:49;;;;;;;7.80;6.27;;;24.50;99.90;;;;;;5135226;27;20525;-90
2021/07/22 11:07:24;;;;;;;10.07;6.50;;;24.50;99.90;;;;;;5135063;27;20894;-77
2021/07/22 11:09:55;;;;;;;9.90;7.00;;;24.60;99.90;;;;;;5134548;27;20469;-78
2021/07/22 11:12:55;;;;;;;6.70;6.10;;;24.60;99.90;;;;;;5135548;27;20469;-81
2021/07/22 11:16:01;;;;;;;11.07;7.50;;;24.60;99.90;;;;;;5135281;27;20447;-78
2021/07/22 11:18:57;;;;;;;10.87;7.60;;;24.60;99.90;;;;;;5134365;27;20769;-83
2021/07/22 11:21:29;;;;;;;8.13;7.33;;;24.60;99.90;;;;;;5134335;27;20565;-80
2021/07/22 11:24:02;;;;;;;9.90;8.90;;;24.60;99.90;;;;;;5133682;27;20482;-83
2021/07/22 11:26:31;;;;;;;7.90;7.10;;;24.50;99.90;;;;;;5133957;27;20448;-87
2021/07/22 11:29:01;;;;;;;11.13;7.90;;;24.50;99.90;;;;;;5135353;27;20940;-80
2021/07/22 11:31:30;;;;;;;10.03;8.53;;;24.50;99.90;;;;;;5133196;27;20434;-86
2021/07/22 11:34:03;;;;;;;10.60;8.40;;;24.50;99.90;;;;;;5134534;27;20481;-89
2021/07/22 11:36:31;;;;;;;12.80;9.13;;;24.40;99.90;;;;;;5134782;27;20889;-80
2021/07/22 11:38:59;;;;;;;9.40;8.40;;;24.60;99.90;;;;;;5134154;27;20469;-82
2021/07/22 11:41:26;;;;;;;9.80;8.80;;;24.60;99.90;;;;;;5134503;27;20482;-81
2021/07/22 11:43:55;;;;;;;8.73;7.80;;;24.60;99.90;;;;;;5133582;27;20781;-79
2021/07/22 11:46:43;;;;;;;10.23;9.17;;;24.60;99.90;;;;;;5135300;27;20442;-80
2021/07/22 11:49:14;;;;;;;15.20;11.90;;;24.60;99.90;;;;;;5127637;27;20450;-80
2021/07/22 11:51:42;;;;;;;14.63;11.40;;;24.60;99.90;;;;;;5135750;27;20414;-80
2021/07/22 11:54:08;;;;;;;12.50;11.20;;;24.70;99.90;;;;;;5134170;27;20450;-79
2021/07/22 11:56:37;;;;;;;13.73;10.93;;;24.80;99.90;;;;;;5134421;27;20442;-92
2021/07/22 11:59:07;;;;;;;12.00;10.13;;;24.70;99.90;;;;;;5133971;27;20537;-79
2021/07/22 12:01:34;;;;;;;12.40;10.50;;;24.80;99.90;;;;;;5131995;27;20473;-84
2021/07/22 12:04:02;;;;;;;13.70;11.97;;;24.80;99.90;;;;;;5133597;27;20454;-88
2021/07/22 12:06:30;;;;;;;12.50;10.73;;;24.80;99.90;;;;;;5132217;27;20442;-85
2021/07/22 12:09:05;;;;;;;12.30;11.00;;;24.80;99.90;;;;;;5134843;27;20450;-85
2021/07/22 12:11:43;;;;;;;12.70;11.50;;;24.80;99.90;;;;;;5133363;27;20446;-82
2021/07/22 12:14:10;;;;;;;12.20;9.93;;;24.80;99.90;;;;;;5132934;27;20462;-80
2021/07/22 12:16:37;;;;;;;11.33;8.70;;;24.80;99.90;;;;;;5132517;27;20446;-85
2021/07/22 12:19:04;;;;;;;12.03;10.40;;;24.80;99.90;;;;;;5132353;27;20446;-80
2021/07/22 12:21:32;;;;;;;10.57;9.00;;;24.80;99.90;;;;;;5131945;27;20513;-84
2021/07/22 12:24:18;;;;;;;10.90;9.60;;;24.80;99.90;;;;;;5132426;27;20450;-85
2021/07/22 12:26:45;;;;;;;9.83;8.90;;;24.80;99.90;;;;;;5127146;27;20442;-80
2021/07/22 12:29:17;;;;;;;11.30;10.20;;;24.80;99.90;;;;;;5133275;27;20935;-79
2021/07/22 12:31:43;;;;;;;10.50;9.40;;;24.80;99.90;;;;;;5131346;27;20453;-82
2021/07/22 12:34:12;;;;;;;11.73;10.03;;;24.80;99.90;;;;;;5133784;27;20438;-84
2021/07/22 12:36:40;;;;;;;11.37;9.90;;;24.80;99.90;;;;;;5133907;27;20445;-85
2021/07/22 12:39:15;;;;;;;11.27;9.37;;;24.70;99.90;;;;;;5134515;27;20446;-91
2021/07/22 12:41:43;;;;;;;17.70;10.90;;;24.70;99.90;;;;;;5132808;27;20471;-89
2021/07/22 12:44:10;;;;;;;11.10;10.00;;;24.70;99.90;;;;;;5133045;27;20453;-78
2021/07/22 12:46:38;;;;;;;10.93;8.60;;;24.80;99.90;;;;;;5133307;27;20446;-82
2021/07/22 12:49:05;;;;;;;11.33;10.23;;;24.80;99.90;;;;;;5133244;27;20525;-82
2021/07/22 12:51:31;;;;;;;13.80;11.73;;;24.80;99.90;;;;;;5133107;27;20438;-86
2021/07/22 12:54:00;;;;;;;13.63;9.47;;;24.70;99.90;;;;;;5132860;27;20460;-86
2021/07/22 12:56:28;;;;;;;11.00;9.33;;;24.80;99.90;;;;;;5122418;27;21194;-79